Southington, Ohio
Current Conditions -  °F | °C
As of 7:51 AM on Wednesday 22 Oct 2014 (Local Time) from KYNG Reporting Station
Overcast Overcast  
Wind Chill: 39°   Ceiling: 500
Heat Index: 45°   Visibility: 10mi
Dew Point: 43°   Wind: 12mph
Humidity: 93%   Direction: 350°N
Pressure: 30.16"   Gusts: NA
Location:  41.31°N, 80.96°W
Report Text: KYNG 221151Z 35010KT 10SM OVC005 07/06 A3016 RMK AO2 SLP218 60000 70020 T00720061 10078 20072 51017
Loading
Personal Weather Stations






























Interactive Weather Map
Tropical Storm Tracking
New forecast layout! Learn more

10-Day Weather Forecast

Advertisements
Track Severe Weather on mobile